createdAt,value
2018-01-14T00:00:21.578Z,10.90
2018-01-14T00:02:48.155Z,12.00
2018-01-14T00:05:14.732Z,11.50
2018-01-14T00:07:41.324Z,11.10
2018-01-14T00:10:07.898Z,11.88
2018-01-14T00:12:34.481Z,11.85
2018-01-14T00:15:01.066Z,11.95
2018-01-14T00:17:27.651Z,11.75
2018-01-14T00:19:54.231Z,11.55
2018-01-14T00:22:21.079Z,11.73
2018-01-14T00:24:47.657Z,11.40
2018-01-14T00:27:14.246Z,11.52
2018-01-14T00:29:40.831Z,11.80
2018-01-14T00:32:07.410Z,12.27
2018-01-14T00:34:33.990Z,12.00
2018-01-14T00:37:00.576Z,11.88
2018-01-14T00:39:27.155Z,12.30
2018-01-14T00:41:53.955Z,11.75
2018-01-14T00:44:20.528Z,12.55
2018-01-14T00:46:47.114Z,12.30
2018-01-14T00:49:14.081Z,11.90
2018-01-14T00:51:40.659Z,11.85
2018-01-14T00:54:07.240Z,12.32
2018-01-14T00:56:33.838Z,12.98
2018-01-14T00:59:00.423Z,11.70
2018-01-14T01:01:27.014Z,12.48
2018-01-14T01:03:53.602Z,12.20
2018-01-14T01:06:20.184Z,11.52
2018-01-14T01:08:46.758Z,11.95
2018-01-14T01:11:13.346Z,11.75
2018-01-14T01:13:39.926Z,12.73
2018-01-14T01:16:06.504Z,10.57
2018-01-14T01:18:33.109Z,11.95
2018-01-14T01:20:59.690Z,12.50
2018-01-14T01:23:26.276Z,12.73
2018-01-14T01:25:52.859Z,11.77
2018-01-14T01:28:19.439Z,11.68
2018-01-14T01:30:46.015Z,12.43
2018-01-14T01:33:12.603Z,10.90
2018-01-14T01:35:39.178Z,12.15
2018-01-14T01:38:05.879Z,11.23
2018-01-14T01:40:32.463Z,13.02
2018-01-14T01:42:59.042Z,12.95
2018-01-14T01:45:25.630Z,11.93
2018-01-14T01:47:52.208Z,12.18
2018-01-14T01:50:18.830Z,12.05
2018-01-14T01:52:45.406Z,11.00
2018-01-14T01:55:11.987Z,13.32
2018-01-14T01:57:38.591Z,12.70
2018-01-14T02:00:05.167Z,12.37
2018-01-14T02:02:31.747Z,11.23
2018-01-14T02:04:58.352Z,12.40
2018-01-14T02:07:24.927Z,11.68
2018-01-14T02:09:51.505Z,11.63
2018-01-14T02:12:18.099Z,11.88
2018-01-14T02:14:44.679Z,13.75
2018-01-14T02:17:11.250Z,12.15
2018-01-14T02:19:37.863Z,12.60
2018-01-14T02:22:04.427Z,12.27
2018-01-14T02:24:31.012Z,11.93
2018-01-14T02:26:57.590Z,12.98
2018-01-14T02:29:24.217Z,10.20
2018-01-14T02:31:50.749Z,11.63
2018-01-14T02:34:17.322Z,11.48
2018-01-14T02:36:43.902Z,12.30
2018-01-14T02:39:10.496Z,10.95
2018-01-14T02:41:37.079Z,12.55
2018-01-14T02:44:03.662Z,10.88
2018-01-14T02:46:30.254Z,10.98
2018-01-14T02:48:56.839Z,12.43
2018-01-14T02:51:23.418Z,12.35
2018-01-14T02:53:49.998Z,12.60
2018-01-14T02:56:16.623Z,11.93
2018-01-14T02:58:43.202Z,12.30
2018-01-14T03:01:09.775Z,13.38
2018-01-14T03:03:36.359Z,12.45
2018-01-14T03:06:02.959Z,12.60
2018-01-14T03:08:29.533Z,12.45
2018-01-14T03:10:56.102Z,13.25
2018-01-14T03:13:22.703Z,12.70
2018-01-14T03:15:49.284Z,11.85
2018-01-14T03:18:16.114Z,12.65
2018-01-14T03:20:42.699Z,13.20
2018-01-14T03:23:09.278Z,12.40
2018-01-14T03:25:36.219Z,12.23
2018-01-14T03:28:02.790Z,12.75
2018-01-14T03:30:29.379Z,12.90
2018-01-14T03:32:55.983Z,12.77
2018-01-14T03:35:22.565Z,13.85
2018-01-14T03:37:49.147Z,13.32
2018-01-14T03:40:15.747Z,13.13
2018-01-14T03:42:42.326Z,11.20
2018-01-14T03:45:08.912Z,14.85
2018-01-14T03:47:35.487Z,12.93
2018-01-14T03:50:02.166Z,12.60
2018-01-14T03:52:28.748Z,13.23
2018-01-14T03:54:55.335Z,12.80
2018-01-14T03:57:22.286Z,13.18
2018-01-14T03:59:48.864Z,14.23
2018-01-14T04:02:15.438Z,13.88
2018-01-14T04:04:42.033Z,13.02
2018-01-14T04:07:08.602Z,13.75
2018-01-14T04:09:35.170Z,12.50
2018-01-14T04:12:01.865Z,13.18
2018-01-14T04:14:28.439Z,13.52
2018-01-14T04:16:55.015Z,14.02
2018-01-14T04:19:22.622Z,13.80
2018-01-14T04:21:49.198Z,14.87
2018-01-14T04:24:15.778Z,13.73
2018-01-14T04:26:42.830Z,14.13
2018-01-14T04:29:09.406Z,15.13
2018-01-14T04:31:35.990Z,14.70
2018-01-14T04:34:02.598Z,14.20
2018-01-14T04:36:29.180Z,14.70
2018-01-14T04:38:55.758Z,15.07
2018-01-14T04:41:22.349Z,13.43
2018-01-14T04:43:48.914Z,13.55
2018-01-14T04:46:15.744Z,14.75
2018-01-14T04:48:42.299Z,16.12
2018-01-14T04:51:08.875Z,14.50
2018-01-14T04:53:35.458Z,15.43
2018-01-14T04:56:02.046Z,14.40
2018-01-14T04:58:28.631Z,14.75
2018-01-14T05:00:55.215Z,13.73
2018-01-14T05:03:22.098Z,15.70
2018-01-14T05:05:48.677Z,15.10
2018-01-14T05:08:15.255Z,15.18
2018-01-14T05:10:41.847Z,14.50
2018-01-14T05:13:08.431Z,16.20
2018-01-14T05:15:35.031Z,14.75
2018-01-14T05:18:01.606Z,13.10
2018-01-14T05:20:28.194Z,14.90
2018-01-14T05:22:54.784Z,14.85
2018-01-14T05:25:21.358Z,15.10
2018-01-14T05:27:47.934Z,14.48
2018-01-14T05:30:14.532Z,13.30
2018-01-14T05:32:41.107Z,14.30
2018-01-14T05:35:07.697Z,14.35
2018-01-14T05:37:34.283Z,14.68
2018-01-14T05:40:00.864Z,15.77
2018-01-14T05:42:27.443Z,15.13
2018-01-14T05:44:54.365Z,13.93
2018-01-14T05:47:20.943Z,14.35
2018-01-14T05:49:47.522Z,15.07
2018-01-14T05:52:14.111Z,14.50
2018-01-14T05:54:40.694Z,14.65
2018-01-14T05:57:07.283Z,12.88
2018-01-14T05:59:33.855Z,15.10
2018-01-14T06:02:00.438Z,13.95
2018-01-14T06:04:27.015Z,14.02
2018-01-14T06:06:53.635Z,13.55
2018-01-14T06:09:20.215Z,13.88
2018-01-14T06:11:46.793Z,13.60
2018-01-14T06:14:13.394Z,14.90
2018-01-14T06:16:39.975Z,14.40
2018-01-14T06:19:06.566Z,14.60
2018-01-14T06:21:33.455Z,15.55
2018-01-14T06:24:00.039Z,13.52
2018-01-14T06:26:26.619Z,14.40
2018-01-14T06:28:53.507Z,14.85
2018-01-14T06:31:20.087Z,15.35
2018-01-14T06:33:46.667Z,14.38
2018-01-14T06:36:13.255Z,15.77
2018-01-14T06:38:39.832Z,16.65
2018-01-14T06:41:06.408Z,16.95
2018-01-14T06:43:33.024Z,14.68
2018-01-14T06:45:59.608Z,17.12
2018-01-14T06:48:26.182Z,16.35
2018-01-14T06:50:52.871Z,17.60
2018-01-14T06:53:19.459Z,16.42
2018-01-14T06:55:46.035Z,17.27
2018-01-14T06:58:12.643Z,18.42
2018-01-14T07:00:39.223Z,16.40
2018-01-14T07:03:05.806Z,17.05
2018-01-14T07:05:32.409Z,17.15
2018-01-14T07:07:58.990Z,18.67
2018-01-14T07:10:25.571Z,16.90
2018-01-14T07:12:52.163Z,17.23
2018-01-14T07:15:18.744Z,16.67
2018-01-14T07:17:45.327Z,17.60
2018-01-14T07:20:11.932Z,16.92
2018-01-14T07:22:38.509Z,16.23
2018-01-14T07:25:05.112Z,17.52
2018-01-14T07:27:31.671Z,17.25
2018-01-14T07:29:58.252Z,16.02
2018-01-14T07:32:24.834Z,19.70
2018-01-14T07:34:51.750Z,17.00
2018-01-14T07:37:18.323Z,17.95
2018-01-14T07:39:44.902Z,19.37
2018-01-14T07:42:11.503Z,18.00
2018-01-14T07:44:38.087Z,17.65
2018-01-14T07:47:04.658Z,18.12
2018-01-14T07:49:31.467Z,16.15
2018-01-14T07:51:58.042Z,17.73
2018-01-14T07:54:24.632Z,18.55
2018-01-14T07:56:51.218Z,17.08
2018-01-14T07:59:17.807Z,16.52
2018-01-14T08:01:44.386Z,17.42
2018-01-14T08:04:10.962Z,18.85
2018-01-14T08:06:37.562Z,17.02
2018-01-14T08:09:04.142Z,17.30
2018-01-14T08:11:30.724Z,17.02
2018-01-14T08:13:57.308Z,17.25
2018-01-14T08:16:23.882Z,17.50
2018-01-14T08:18:50.783Z,17.30
2018-01-14T08:21:17.366Z,17.65
2018-01-14T08:23:43.943Z,16.62
2018-01-14T08:26:10.542Z,16.48
2018-01-14T08:28:37.334Z,17.20
2018-01-14T08:31:03.894Z,17.17
2018-01-14T08:33:30.931Z,16.23
2018-01-14T08:35:57.545Z,16.75
2018-01-14T08:38:24.124Z,17.05
2018-01-14T08:40:50.731Z,17.60
2018-01-14T08:43:17.319Z,18.33
2018-01-14T08:45:43.899Z,16.00
2018-01-14T08:48:10.924Z,16.05
2018-01-14T08:50:38.004Z,16.50
2018-01-14T08:53:04.599Z,17.45
2018-01-14T08:55:31.617Z,16.73
2018-01-14T08:57:58.166Z,17.55
2018-01-14T09:00:24.824Z,15.50
2018-01-14T09:02:51.383Z,15.40
2018-01-14T09:05:18.025Z,17.60
2018-01-14T09:07:44.599Z,16.40
2018-01-14T09:10:11.224Z,15.93
2018-01-14T09:12:37.795Z,17.48
2018-01-14T09:15:04.783Z,16.75
2018-01-14T09:17:31.378Z,17.23
2018-01-14T09:19:57.961Z,16.37
2018-01-14T09:22:24.619Z,14.93
2018-01-14T09:24:51.332Z,16.77
2018-01-14T09:27:17.927Z,16.55
2018-01-14T09:29:44.508Z,16.27
2018-01-14T09:32:11.142Z,16.02
2018-01-14T09:34:37.714Z,15.80
2018-01-14T09:37:04.286Z,17.73
2018-01-14T09:39:30.866Z,17.20
2018-01-14T09:41:57.460Z,16.83
2018-01-14T09:44:24.044Z,16.42
2018-01-14T09:46:50.627Z,16.55
2018-01-14T09:49:17.351Z,15.80
2018-01-14T09:51:43.919Z,16.95
2018-01-14T09:54:10.503Z,16.95
2018-01-14T09:56:37.099Z,16.15
2018-01-14T09:59:03.682Z,16.50
2018-01-14T10:01:30.288Z,16.73
2018-01-14T10:03:56.872Z,16.33
2018-01-14T10:06:23.455Z,15.90
2018-01-14T10:08:50.232Z,16.83
2018-01-14T10:11:24.157Z,15.20
2018-01-14T10:13:51.775Z,14.75
2018-01-14T10:16:18.335Z,14.95
2018-01-14T10:18:44.925Z,16.30
2018-01-14T10:21:11.519Z,15.40
2018-01-14T10:23:38.505Z,16.67
2018-01-14T10:26:05.083Z,16.60
2018-01-14T10:28:31.682Z,16.30
2018-01-14T10:30:58.266Z,16.70
2018-01-14T10:33:24.856Z,16.25
2018-01-14T10:35:51.477Z,15.27
2018-01-14T10:38:18.044Z,16.20
2018-01-14T10:40:44.631Z,17.27
2018-01-14T10:43:11.210Z,17.30
2018-01-14T10:45:37.799Z,16.80
2018-01-14T10:48:04.393Z,16.40
2018-01-14T10:50:30.989Z,15.88
2018-01-14T10:52:57.579Z,15.90
2018-01-14T10:55:24.174Z,16.62
2018-01-14T10:57:50.878Z,16.33
2018-01-14T11:00:17.457Z,17.47
2018-01-14T11:02:44.038Z,16.27
2018-01-14T11:05:10.743Z,15.52
2018-01-14T11:07:37.342Z,16.27
2018-01-14T11:10:03.915Z,14.30
2018-01-14T11:12:30.751Z,16.27
2018-01-14T11:14:57.327Z,15.57
2018-01-14T11:17:23.898Z,16.33
2018-01-14T11:19:50.485Z,16.10
2018-01-14T11:22:17.054Z,17.33
2018-01-14T11:24:43.673Z,17.60
2018-01-14T11:27:10.247Z,14.73
2018-01-14T11:29:39.773Z,16.30
2018-01-14T11:32:07.171Z,17.20
2018-01-14T11:34:33.747Z,15.30
2018-01-14T11:37:00.327Z,17.60
2018-01-14T11:39:26.913Z,17.20
2018-01-14T11:41:53.495Z,16.27
2018-01-14T11:44:20.225Z,16.33
2018-01-14T11:46:46.779Z,21.50
2018-01-14T11:49:13.362Z,15.93
2018-01-14T11:51:40.600Z,16.87
2018-01-14T11:54:07.146Z,16.37
2018-01-14T11:56:33.719Z,16.90
2018-01-14T11:59:00.314Z,16.40
2018-01-14T12:01:26.895Z,17.57
2018-01-14T12:03:53.466Z,17.03
2018-01-14T12:06:20.372Z,16.90
2018-01-14T12:08:46.923Z,16.27
2018-01-14T12:11:13.499Z,18.03
2018-01-14T12:13:40.073Z,16.57
2018-01-14T12:16:06.874Z,16.70
2018-01-14T12:18:33.427Z,18.17
2018-01-14T12:21:00.167Z,17.37
2018-01-14T12:23:26.739Z,16.10
2018-01-14T12:25:53.319Z,16.97
2018-01-14T12:28:19.890Z,16.07
2018-01-14T12:30:46.481Z,18.37
2018-01-14T12:33:13.054Z,16.20
2018-01-14T12:35:39.627Z,16.70
2018-01-14T12:38:06.209Z,17.03
2018-01-14T12:40:32.778Z,17.10
2018-01-14T12:42:59.454Z,17.10
2018-01-14T12:45:26.093Z,17.40
2018-01-14T12:47:52.619Z,17.63
2018-01-14T12:50:19.319Z,18.60
2018-01-14T12:52:45.894Z,18.37
2018-01-14T12:55:12.467Z,17.37
2018-01-14T12:57:39.071Z,18.17
2018-01-14T13:00:05.648Z,17.70
2018-01-14T13:02:32.225Z,17.77
2018-01-14T13:04:58.907Z,18.17
2018-01-14T13:07:25.487Z,17.70
2018-01-14T13:09:52.060Z,18.90
2018-01-14T13:12:18.652Z,18.47
2018-01-14T13:14:45.218Z,17.83
2018-01-14T13:17:11.799Z,19.30
2018-01-14T13:19:38.378Z,17.03
2018-01-14T13:22:04.956Z,16.80
2018-01-14T13:24:31.540Z,19.80
2018-01-14T13:26:58.149Z,18.23
2018-01-14T13:29:24.727Z,20.57
2018-01-14T13:31:51.303Z,18.77
2018-01-14T13:34:17.899Z,18.30
2018-01-14T13:36:44.480Z,23.23
2018-01-14T13:39:11.060Z,18.33
2018-01-14T13:41:37.644Z,19.07
2018-01-14T13:44:04.218Z,17.83
2018-01-14T13:46:30.796Z,18.90
2018-01-14T13:48:57.405Z,21.03
2018-01-14T13:51:23.987Z,18.30
2018-01-14T13:53:50.922Z,18.20
2018-01-14T13:56:17.520Z,18.07
2018-01-14T13:58:44.197Z,17.73
2018-01-14T14:01:10.783Z,16.90
2018-01-14T14:03:37.359Z,17.60
2018-01-14T14:06:03.940Z,18.90
2018-01-14T14:08:30.547Z,18.07
2018-01-14T14:10:57.119Z,19.43
2018-01-14T14:13:23.701Z,19.37
2018-01-14T14:15:50.290Z,19.87
2018-01-14T14:18:16.868Z,18.30
2018-01-14T14:20:43.437Z,19.00
2018-01-14T14:23:10.039Z,19.83
2018-01-14T14:25:36.614Z,27.23
2018-01-14T14:28:03.192Z,18.80
2018-01-14T14:30:29.784Z,18.50
2018-01-14T14:32:56.366Z,18.50
2018-01-14T14:35:22.941Z,17.77
2018-01-14T14:37:49.528Z,17.73
2018-01-14T14:40:16.099Z,19.33
2018-01-14T14:42:42.674Z,17.40
2018-01-14T14:45:09.258Z,18.30
2018-01-14T14:47:35.846Z,19.27
2018-01-14T14:50:02.424Z,17.37
2018-01-14T14:52:28.997Z,18.60
2018-01-14T14:54:55.949Z,18.97
2018-01-14T14:57:22.531Z,20.40
2018-01-14T14:59:49.110Z,19.03
2018-01-14T15:02:15.799Z,19.27
2018-01-14T15:04:42.602Z,17.60
2018-01-14T15:07:09.184Z,18.53
2018-01-14T15:09:35.806Z,16.58
2018-01-14T15:12:02.392Z,18.73
2018-01-14T15:14:28.979Z,19.17
2018-01-14T15:16:55.671Z,18.48
2018-01-14T15:19:22.306Z,18.85
2018-01-14T15:21:54.497Z,19.05
2018-01-14T15:24:29.800Z,18.42
2018-01-14T15:27:02.072Z,17.52
2018-01-14T15:29:30.145Z,18.87
2018-01-14T15:32:02.359Z,17.95
2018-01-14T15:34:36.132Z,19.27
2018-01-14T15:40:01.248Z,17.83
2018-01-14T15:42:33.881Z,19.58
2018-01-14T15:57:06.435Z,17.30
2018-01-14T15:59:35.544Z,21.23
2018-01-14T16:02:05.148Z,18.75
2018-01-14T16:04:39.836Z,20.90
2018-01-14T16:07:06.532Z,17.37
2018-01-14T16:12:37.058Z,18.23
2018-01-14T16:15:03.711Z,18.35
2018-01-14T16:17:30.308Z,20.25
2018-01-14T16:19:56.916Z,18.60
2018-01-14T16:22:23.567Z,18.15
2018-01-14T16:24:50.163Z,18.30
2018-01-14T16:27:16.770Z,19.00
2018-01-14T16:29:43.367Z,18.40
2018-01-14T16:32:11.433Z,19.40
2018-01-14T16:34:38.143Z,19.10
2018-01-14T16:37:04.723Z,19.98
2018-01-14T16:39:31.299Z,19.45
2018-01-14T16:41:57.882Z,18.70
2018-01-14T16:44:24.498Z,19.27
2018-01-14T16:46:51.073Z,20.23
2018-01-14T16:49:17.652Z,19.83
2018-01-14T16:51:44.232Z,18.75
2018-01-14T16:54:10.999Z,19.50
2018-01-14T16:56:37.574Z,19.42
2018-01-14T16:59:04.149Z,22.87
2018-01-14T17:01:30.731Z,19.00
2018-01-14T17:03:57.311Z,16.52
2018-01-14T17:06:24.091Z,16.95
2018-01-14T17:08:50.664Z,17.75
2018-01-14T17:11:17.259Z,18.27
2018-01-14T17:13:43.838Z,17.80
2018-01-14T17:16:10.415Z,21.40
2018-01-14T17:18:37.016Z,17.73
2018-01-14T17:21:03.593Z,16.95
2018-01-14T17:23:30.237Z,18.17
2018-01-14T17:25:56.793Z,18.80
2018-01-14T17:28:23.367Z,16.48
2018-01-14T17:30:49.942Z,17.87
2018-01-14T17:33:16.550Z,18.52
2018-01-14T17:35:43.126Z,18.50
2018-01-14T17:38:09.716Z,19.33
2018-01-14T17:40:36.492Z,18.55
2018-01-14T17:43:03.084Z,19.20
2018-01-14T17:45:29.658Z,18.10
2018-01-14T17:47:56.251Z,18.60
2018-01-14T17:50:22.836Z,16.70
2018-01-14T17:53:14.069Z,18.30
2018-01-14T17:55:49.584Z,17.05
2018-01-14T18:00:56.923Z,20.48
2018-01-14T18:03:27.560Z,18.25
2018-01-14T18:05:57.826Z,18.77
2018-01-14T18:08:24.926Z,18.65
2018-01-14T18:13:39.952Z,18.70
2018-01-14T18:16:06.618Z,16.90
2018-01-14T18:18:33.247Z,17.48
2018-01-14T18:20:59.957Z,18.73
2018-01-14T18:23:26.850Z,15.50
2018-01-14T18:25:53.438Z,17.48
2018-01-14T18:28:20.040Z,19.62
2018-01-14T18:30:46.627Z,18.55
2018-01-14T18:33:13.220Z,17.60
2018-01-14T18:35:39.823Z,18.83
2018-01-14T18:38:06.427Z,16.45
2018-01-14T18:40:32.998Z,17.98
2018-01-14T18:42:59.590Z,15.63
2018-01-14T18:45:32.060Z,19.05
2018-01-14T18:47:58.659Z,17.83
2018-01-14T18:50:25.535Z,16.20
2018-01-14T18:52:52.122Z,18.33
2018-01-14T18:55:18.698Z,25.35
2018-01-14T18:57:45.313Z,16.60
2018-01-14T19:00:11.916Z,19.58
2018-01-14T19:02:38.507Z,18.10
2018-01-14T19:05:05.096Z,18.85
2018-01-14T19:07:31.672Z,18.00
2018-01-14T19:09:58.288Z,18.50
2018-01-14T19:12:24.867Z,19.15
2018-01-14T19:14:51.456Z,18.50
2018-01-14T19:17:18.147Z,17.95
2018-01-14T19:19:44.720Z,19.35
2018-01-14T19:22:11.532Z,18.12
2018-01-14T19:24:38.114Z,17.87
2018-01-14T19:27:04.731Z,16.67
2018-01-14T19:29:31.310Z,17.75
2018-01-14T19:31:57.891Z,17.40
2018-01-14T19:34:24.483Z,16.55
2018-01-14T19:36:51.312Z,19.77
2018-01-14T19:39:17.922Z,19.25
2018-01-14T19:41:44.498Z,19.37
2018-01-14T19:44:11.074Z,19.55
2018-01-14T19:46:37.660Z,18.50
2018-01-14T19:49:04.256Z,17.35
2018-01-14T19:51:30.847Z,18.90
2018-01-14T19:53:57.439Z,18.45
2018-01-14T19:56:24.126Z,18.40
2018-01-14T19:58:50.703Z,19.20
2018-01-14T20:01:17.282Z,19.10
2018-01-14T20:03:43.958Z,19.10
2018-01-14T20:06:10.542Z,19.15
2018-01-14T20:08:37.143Z,19.60
2018-01-14T20:11:03.823Z,19.37
2018-01-14T20:13:30.411Z,19.92
2018-01-14T20:15:56.991Z,18.87
2018-01-14T20:18:23.630Z,21.15
2018-01-14T20:20:50.171Z,18.62
2018-01-14T20:23:16.756Z,20.92
2018-01-14T20:25:43.351Z,19.60
2018-01-14T20:28:09.930Z,17.62
2018-01-14T20:30:36.508Z,19.10
2018-01-14T20:33:03.103Z,18.27
2018-01-14T20:35:29.678Z,19.42
2018-01-14T20:37:56.285Z,19.27
2018-01-14T20:40:22.866Z,18.40
2018-01-14T20:42:49.455Z,18.65
2018-01-14T20:45:16.026Z,17.92
2018-01-14T20:47:42.775Z,19.75
2018-01-14T20:50:09.354Z,18.27
2018-01-14T20:52:35.926Z,20.17
2018-01-14T20:55:02.539Z,19.00
2018-01-14T20:57:30.034Z,19.33
2018-01-14T20:59:56.609Z,16.37
2018-01-14T21:02:23.195Z,18.42
2018-01-14T21:04:49.791Z,19.95
2018-01-14T21:07:16.374Z,19.37
2018-01-14T21:09:42.948Z,18.80
2018-01-14T21:12:09.543Z,21.62
2018-01-14T21:14:36.114Z,24.52
2018-01-14T21:17:02.700Z,19.60
2018-01-14T21:19:29.562Z,18.70
2018-01-14T21:21:56.239Z,18.98
2018-01-14T21:24:22.826Z,20.23
2018-01-14T21:26:49.426Z,19.90
2018-01-14T21:29:16.009Z,18.80
2018-01-14T21:31:42.602Z,19.33
2018-01-14T21:34:09.207Z,17.67
2018-01-14T21:36:35.792Z,18.75
2018-01-14T21:39:02.394Z,19.65
2018-01-14T21:41:28.995Z,18.17
2018-01-14T21:43:55.578Z,19.50
2018-01-14T21:46:22.163Z,19.60
2018-01-14T21:48:48.773Z,20.20
2018-01-14T21:51:15.360Z,18.80
2018-01-14T21:53:41.974Z,19.37
2018-01-14T21:56:08.582Z,19.83
2018-01-14T21:58:35.174Z,18.98
2018-01-14T22:01:01.777Z,19.30
2018-01-14T22:03:28.359Z,18.67
2018-01-14T22:05:54.948Z,18.10
2018-01-14T22:08:21.530Z,25.20
2018-01-14T22:10:48.446Z,19.45
2018-01-14T22:13:15.020Z,20.02
2018-01-14T22:15:41.617Z,19.67
2018-01-14T22:18:08.251Z,18.73
2018-01-14T22:20:34.806Z,19.83
2018-01-14T22:23:01.413Z,20.95
2018-01-14T22:25:27.987Z,19.40
2018-01-14T22:27:54.578Z,18.02
2018-01-14T22:30:21.203Z,18.87
2018-01-14T22:32:47.790Z,19.23
2018-01-14T22:35:14.379Z,19.02
2018-01-14T22:37:40.992Z,18.37
2018-01-14T22:40:07.584Z,20.80
2018-01-14T22:42:34.176Z,19.15
2018-01-14T22:45:00.751Z,18.25
2018-01-14T22:47:27.352Z,18.12
2018-01-14T22:49:53.936Z,17.87
2018-01-14T22:52:20.519Z,25.75
2018-01-14T22:54:47.124Z,20.88
2018-01-14T22:57:13.695Z,19.60
2018-01-14T22:59:40.275Z,19.02
2018-01-14T23:04:40.207Z,18.75
2018-01-14T23:07:06.794Z,19.70
2018-01-14T23:09:33.378Z,19.95
2018-01-14T23:11:59.966Z,19.40
2018-01-14T23:14:26.555Z,20.60
2018-01-14T23:16:53.138Z,21.65
2018-01-14T23:19:19.717Z,25.65
2018-01-14T23:21:46.299Z,18.55
2018-01-14T23:24:12.937Z,20.55
2018-01-14T23:26:39.514Z,20.10
2018-01-14T23:29:06.092Z,18.92
2018-01-14T23:31:33.162Z,20.12
2018-01-14T23:33:59.743Z,19.62
2018-01-14T23:36:26.318Z,19.92
2018-01-14T23:38:52.907Z,20.23
2018-01-14T23:41:19.483Z,18.65
2018-01-14T23:43:46.062Z,18.20
2018-01-14T23:46:12.666Z,19.23
2018-01-14T23:48:39.252Z,18.70
2018-01-14T23:51:05.822Z,20.62
2018-01-14T23:53:32.406Z,19.73
2018-01-14T23:55:58.992Z,18.83
2018-01-14T23:58:25.599Z,21.55
